sensor_id;sensor_type;location;lat;lon;timestamp;temperature;humidity
38333;DHT22;25748;46.670;14.272;2023-10-08T00:00:26;13.60;72.90
38333;DHT22;25748;46.670;14.272;2023-10-08T00:03:11;13.70;72.90
38333;DHT22;25748;46.670;14.272;2023-10-08T00:05:37;13.70;73.00
38333;DHT22;25748;46.670;14.272;2023-10-08T00:08:03;13.60;73.10
38333;DHT22;25748;46.670;14.272;2023-10-08T00:10:37;13.70;73.10
38333;DHT22;25748;46.670;14.272;2023-10-08T00:13:05;13.60;73.00
38333;DHT22;25748;46.670;14.272;2023-10-08T00:15:39;13.60;73.30
38333;DHT22;25748;46.670;14.272;2023-10-08T00:18:21;13.60;73.60
38333;DHT22;25748;46.670;14.272;2023-10-08T00:20:48;13.60;73.70
38333;DHT22;25748;46.670;14.272;2023-10-08T00:23:22;13.60;74.00
38333;DHT22;25748;46.670;14.272;2023-10-08T00:25:51;13.60;73.70
38333;DHT22;25748;46.670;14.272;2023-10-08T00:28:17;13.60;73.70
38333;DHT22;25748;46.670;14.272;2023-10-08T00:30:43;13.60;73.90
38333;DHT22;25748;46.670;14.272;2023-10-08T00:33:10;13.60;73.90
38333;DHT22;25748;46.670;14.272;2023-10-08T00:35:41;13.60;73.80
38333;DHT22;25748;46.670;14.272;2023-10-08T00:38:10;13.60;74.00
38333;DHT22;25748;46.670;14.272;2023-10-08T00:40:46;13.60;74.10
38333;DHT22;25748;46.670;14.272;2023-10-08T00:43:32;13.60;74.00
38333;DHT22;25748;46.670;14.272;2023-10-08T00:46:00;13.60;74.20
38333;DHT22;25748;46.670;14.272;2023-10-08T00:48:26;13.60;74.50
38333;DHT22;25748;46.670;14.272;2023-10-08T00:51:00;13.60;74.70
38333;DHT22;25748;46.670;14.272;2023-10-08T00:53:36;13.60;74.80
38333;DHT22;25748;46.670;14.272;2023-10-08T00:56:06;13.60;75.10
38333;DHT22;25748;46.670;14.272;2023-10-08T00:58:40;13.60;75.30
38333;DHT22;25748;46.670;14.272;2023-10-08T01:01:06;13.60;75.10
38333;DHT22;25748;46.670;14.272;2023-10-08T01:03:37;13.60;75.00
38333;DHT22;25748;46.670;14.272;2023-10-08T01:06:09;13.60;75.10
38333;DHT22;25748;46.670;14.272;2023-10-08T01:08:36;13.60;75.10
38333;DHT22;25748;46.670;14.272;2023-10-08T01:11:21;13.60;75.20
38333;DHT22;25748;46.670;14.272;2023-10-08T01:13:56;13.60;75.20
38333;DHT22;25748;46.670;14.272;2023-10-08T01:16:24;13.60;75.20
38333;DHT22;25748;46.670;14.272;2023-10-08T01:18:52;13.60;75.20
38333;DHT22;25748;46.670;14.272;2023-10-08T01:21:20;13.70;75.30
38333;DHT22;25748;46.670;14.272;2023-10-08T01:24:15;13.70;74.80
38333;DHT22;25748;46.670;14.272;2023-10-08T01:26:43;13.70;74.40
38333;DHT22;25748;46.670;14.272;2023-10-08T01:29:11;13.60;74.50
38333;DHT22;25748;46.670;14.272;2023-10-08T01:31:45;13.60;74.60
38333;DHT22;25748;46.670;14.272;2023-10-08T01:34:11;13.60;74.80
38333;DHT22;25748;46.670;14.272;2023-10-08T01:36:42;13.60;75.00
38333;DHT22;25748;46.670;14.272;2023-10-08T01:39:11;13.60;75.10
38333;DHT22;25748;46.670;14.272;2023-10-08T01:41:45;13.60;75.10
38333;DHT22;25748;46.670;14.272;2023-10-08T01:44:12;13.60;75.00
38333;DHT22;25748;46.670;14.272;2023-10-08T01:46:38;13.60;75.30
38333;DHT22;25748;46.670;14.272;2023-10-08T01:49:06;13.60;75.00
38333;DHT22;25748;46.670;14.272;2023-10-08T01:51:40;13.60;75.40
38333;DHT22;25748;46.670;14.272;2023-10-08T01:54:12;13.60;75.30
38333;DHT22;25748;46.670;14.272;2023-10-08T01:56:43;13.60;75.60
38333;DHT22;25748;46.670;14.272;2023-10-08T01:59:10;13.60;75.50
38333;DHT22;25748;46.670;14.272;2023-10-08T02:01:37;13.60;75.50
38333;DHT22;25748;46.670;14.272;2023-10-08T02:04:05;13.60;75.50
38333;DHT22;25748;46.670;14.272;2023-10-08T02:06:33;13.50;75.40
38333;DHT22;25748;46.670;14.272;2023-10-08T02:09:02;13.50;75.50
38333;DHT22;25748;46.670;14.272;2023-10-08T02:11:56;13.50;75.50
38333;DHT22;25748;46.670;14.272;2023-10-08T02:14:23;13.50;75.20
38333;DHT22;25748;46.670;14.272;2023-10-08T02:16:50;13.60;75.40
38333;DHT22;25748;46.670;14.272;2023-10-08T02:19:18;13.50;75.20
38333;DHT22;25748;46.670;14.272;2023-10-08T02:21:55;13.50;75.10
38333;DHT22;25748;46.670;14.272;2023-10-08T02:24:22;13.50;75.20
38333;DHT22;25748;46.670;14.272;2023-10-08T02:26:51;13.50;75.40
38333;DHT22;25748;46.670;14.272;2023-10-08T02:29:18;13.40;75.50
38333;DHT22;25748;46.670;14.272;2023-10-08T02:31:43;13.40;75.50
38333;DHT22;25748;46.670;14.272;2023-10-08T02:34:10;13.50;75.70
38333;DHT22;25748;46.670;14.272;2023-10-08T02:36:36;13.40;75.60
38333;DHT22;25748;46.670;14.272;2023-10-08T02:39:03;13.50;75.50
38333;DHT22;25748;46.670;14.272;2023-10-08T02:41:33;13.50;75.20
38333;DHT22;25748;46.670;14.272;2023-10-08T02:43:59;13.40;75.20
38333;DHT22;25748;46.670;14.272;2023-10-08T02:46:25;13.50;75.00
38333;DHT22;25748;46.670;14.272;2023-10-08T02:48:52;13.40;74.90
38333;DHT22;25748;46.670;14.272;2023-10-08T02:51:18;13.40;75.00
38333;DHT22;25748;46.670;14.272;2023-10-08T02:53:46;13.40;75.20
38333;DHT22;25748;46.670;14.272;2023-10-08T02:56:12;13.40;75.20
38333;DHT22;25748;46.670;14.272;2023-10-08T02:58:41;13.40;75.50
38333;DHT22;25748;46.670;14.272;2023-10-08T03:01:09;13.50;75.30
38333;DHT22;25748;46.670;14.272;2023-10-08T03:03:41;13.40;74.80
38333;DHT22;25748;46.670;14.272;2023-10-08T03:06:08;13.40;75.00
38333;DHT22;25748;46.670;14.272;2023-10-08T03:08:40;13.40;74.90
38333;DHT22;25748;46.670;14.272;2023-10-08T03:11:09;13.30;74.60
38333;DHT22;25748;46.670;14.272;2023-10-08T03:13:45;13.30;74.90
38333;DHT22;25748;46.670;14.272;2023-10-08T03:16:17;13.30;75.10
38333;DHT22;25748;46.670;14.272;2023-10-08T03:18:48;13.20;74.80
38333;DHT22;25748;46.670;14.272;2023-10-08T03:21:15;13.20;74.70
38333;DHT22;25748;46.670;14.272;2023-10-08T03:23:58;13.20;74.90
38333;DHT22;25748;46.670;14.272;2023-10-08T03:26:24;13.20;73.30
38333;DHT22;25748;46.670;14.272;2023-10-08T03:29:03;13.10;73.10
38333;DHT22;25748;46.670;14.272;2023-10-08T03:31:41;13.00;73.40
38333;DHT22;25748;46.670;14.272;2023-10-08T03:34:24;13.00;73.70
38333;DHT22;25748;46.670;14.272;2023-10-08T03:36:59;12.90;73.60
38333;DHT22;25748;46.670;14.272;2023-10-08T03:39:32;12.80;73.80
38333;DHT22;25748;46.670;14.272;2023-10-08T03:42:21;12.80;74.10
38333;DHT22;25748;46.670;14.272;2023-10-08T03:44:51;12.80;74.20
38333;DHT22;25748;46.670;14.272;2023-10-08T03:47:21;12.80;74.10
38333;DHT22;25748;46.670;14.272;2023-10-08T03:49:49;12.80;74.40
38333;DHT22;25748;46.670;14.272;2023-10-08T03:52:20;12.80;74.30
38333;DHT22;25748;46.670;14.272;2023-10-08T03:54:51;12.70;74.10
38333;DHT22;25748;46.670;14.272;2023-10-08T03:57:52;12.70;74.30
38333;DHT22;25748;46.670;14.272;2023-10-08T04:00:24;12.70;74.30
38333;DHT22;25748;46.670;14.272;2023-10-08T04:02:58;12.60;74.30
38333;DHT22;25748;46.670;14.272;2023-10-08T04:05:34;12.60;74.10
38333;DHT22;25748;46.670;14.272;2023-10-08T04:08:10;12.60;74.00
38333;DHT22;25748;46.670;14.272;2023-10-08T04:11:09;12.60;74.10
38333;DHT22;25748;46.670;14.272;2023-10-08T04:13:58;12.60;74.50
38333;DHT22;25748;46.670;14.272;2023-10-08T04:16:28;12.50;74.60
38333;DHT22;25748;46.670;14.272;2023-10-08T04:18:56;12.50;74.90
38333;DHT22;25748;46.670;14.272;2023-10-08T04:21:23;12.50;74.50
38333;DHT22;25748;46.670;14.272;2023-10-08T04:23:53;12.50;74.50
38333;DHT22;25748;46.670;14.272;2023-10-08T04:26:19;12.50;74.60
38333;DHT22;25748;46.670;14.272;2023-10-08T04:28:55;12.40;74.30
38333;DHT22;25748;46.670;14.272;2023-10-08T04:31:23;12.40;74.10
38333;DHT22;25748;46.670;14.272;2023-10-08T04:34:04;12.40;74.30
38333;DHT22;25748;46.670;14.272;2023-10-08T04:36:48;12.30;74.10
38333;DHT22;25748;46.670;14.272;2023-10-08T04:39:20;12.30;73.90
38333;DHT22;25748;46.670;14.272;2023-10-08T04:41:52;12.30;73.50
38333;DHT22;25748;46.670;14.272;2023-10-08T04:44:20;12.20;73.30
38333;DHT22;25748;46.670;14.272;2023-10-08T04:46:47;12.10;73.70
38333;DHT22;25748;46.670;14.272;2023-10-08T04:49:17;12.20;74.00
38333;DHT22;25748;46.670;14.272;2023-10-08T04:51:53;12.20;74.30
38333;DHT22;25748;46.670;14.272;2023-10-08T04:54:31;12.20;74.30
38333;DHT22;25748;46.670;14.272;2023-10-08T04:57:00;12.10;74.10
38333;DHT22;25748;46.670;14.272;2023-10-08T04:59:29;12.10;74.10
38333;DHT22;25748;46.670;14.272;2023-10-08T05:02:03;12.10;74.20
38333;DHT22;25748;46.670;14.272;2023-10-08T05:04:41;12.00;74.10
38333;DHT22;25748;46.670;14.272;2023-10-08T05:07:16;12.00;74.10
38333;DHT22;25748;46.670;14.272;2023-10-08T05:09:44;12.00;74.40
38333;DHT22;25748;46.670;14.272;2023-10-08T05:12:18;12.00;74.40
38333;DHT22;25748;46.670;14.272;2023-10-08T05:15:13;12.00;74.60
38333;DHT22;25748;46.670;14.272;2023-10-08T05:17:48;12.00;74.30
38333;DHT22;25748;46.670;14.272;2023-10-08T05:20:20;12.00;74.60
38333;DHT22;25748;46.670;14.272;2023-10-08T05:23:11;12.00;74.80
38333;DHT22;25748;46.670;14.272;2023-10-08T05:25:58;12.00;74.40
38333;DHT22;25748;46.670;14.272;2023-10-08T05:28:37;12.00;74.60
38333;DHT22;25748;46.670;14.272;2023-10-08T05:31:30;11.90;74.60
38333;DHT22;25748;46.670;14.272;2023-10-08T05:34:28;11.90;75.10
38333;DHT22;25748;46.670;14.272;2023-10-08T05:37:08;12.00;75.40
38333;DHT22;25748;46.670;14.272;2023-10-08T05:39:33;12.00;75.60
38333;DHT22;25748;46.670;14.272;2023-10-08T05:42:05;12.00;75.30
38333;DHT22;25748;46.670;14.272;2023-10-08T05:44:46;11.90;75.30
38333;DHT22;25748;46.670;14.272;2023-10-08T05:47:30;11.90;75.40
38333;DHT22;25748;46.670;14.272;2023-10-08T05:49:59;11.90;75.60
38333;DHT22;25748;46.670;14.272;2023-10-08T05:52:48;12.00;75.90
38333;DHT22;25748;46.670;14.272;2023-10-08T05:55:22;12.00;76.20
38333;DHT22;25748;46.670;14.272;2023-10-08T05:57:58;12.00;76.30
38333;DHT22;25748;46.670;14.272;2023-10-08T06:00:50;12.10;76.50
38333;DHT22;25748;46.670;14.272;2023-10-08T06:03:16;12.20;76.70
38333;DHT22;25748;46.670;14.272;2023-10-08T06:06:01;12.20;77.00
38333;DHT22;25748;46.670;14.272;2023-10-08T06:08:39;12.20;77.00
38333;DHT22;25748;46.670;14.272;2023-10-08T06:11:20;12.30;77.20
38333;DHT22;25748;46.670;14.272;2023-10-08T06:14:08;12.30;77.30
38333;DHT22;25748;46.670;14.272;2023-10-08T06:16:53;12.40;77.70
38333;DHT22;25748;46.670;14.272;2023-10-08T06:19:41;12.50;77.70
38333;DHT22;25748;46.670;14.272;2023-10-08T06:22:08;12.60;78.00
38333;DHT22;25748;46.670;14.272;2023-10-08T06:24:34;12.60;77.90
38333;DHT22;25748;46.670;14.272;2023-10-08T06:27:04;12.70;78.00
38333;DHT22;25748;46.670;14.272;2023-10-08T06:29:31;12.70;78.00
38333;DHT22;25748;46.670;14.272;2023-10-08T06:31:57;12.80;78.10
38333;DHT22;25748;46.670;14.272;2023-10-08T06:34:28;12.90;78.00
38333;DHT22;25748;46.670;14.272;2023-10-08T06:36:55;13.00;78.20
38333;DHT22;25748;46.670;14.272;2023-10-08T06:39:24;13.00;78.10
38333;DHT22;25748;46.670;14.272;2023-10-08T06:42:15;13.10;78.10
38333;DHT22;25748;46.670;14.272;2023-10-08T06:44:42;13.20;78.20
38333;DHT22;25748;46.670;14.272;2023-10-08T06:47:13;13.40;78.50
38333;DHT22;25748;46.670;14.272;2023-10-08T06:49:42;13.50;77.60
38333;DHT22;25748;46.670;14.272;2023-10-08T06:52:08;13.60;77.00
38333;DHT22;25748;46.670;14.272;2023-10-08T06:54:38;13.70;76.90
38333;DHT22;25748;46.670;14.272;2023-10-08T06:57:04;13.80;77.10
38333;DHT22;25748;46.670;14.272;2023-10-08T06:59:30;13.90;77.10
38333;DHT22;25748;46.670;14.272;2023-10-08T07:01:57;14.00;76.50
38333;DHT22;25748;46.670;14.272;2023-10-08T07:04:24;14.20;76.70
38333;DHT22;25748;46.670;14.272;2023-10-08T07:06:51;14.30;76.60
38333;DHT22;25748;46.670;14.272;2023-10-08T07:09:17;14.40;76.40
38333;DHT22;25748;46.670;14.272;2023-10-08T07:11:52;14.50;75.80
38333;DHT22;25748;46.670;14.272;2023-10-08T07:14:26;14.60;75.60
38333;DHT22;25748;46.670;14.272;2023-10-08T07:16:56;14.70;75.20
38333;DHT22;25748;46.670;14.272;2023-10-08T07:19:29;14.70;74.70
38333;DHT22;25748;46.670;14.272;2023-10-08T07:22:05;14.70;73.90
38333;DHT22;25748;46.670;14.272;2023-10-08T07:25:00;14.80;74.10
38333;DHT22;25748;46.670;14.272;2023-10-08T07:27:26;14.80;73.50
38333;DHT22;25748;46.670;14.272;2023-10-08T07:30:03;14.80;73.00
38333;DHT22;25748;46.670;14.272;2023-10-08T07:32:36;14.90;72.40
38333;DHT22;25748;46.670;14.272;2023-10-08T07:35:04;14.90;72.80
38333;DHT22;25748;46.670;14.272;2023-10-08T07:37:45;14.90;72.80
38333;DHT22;25748;46.670;14.272;2023-10-08T07:40:13;14.90;72.60
38333;DHT22;25748;46.670;14.272;2023-10-08T07:42:39;15.00;73.20
38333;DHT22;25748;46.670;14.272;2023-10-08T07:45:05;15.00;73.10
38333;DHT22;25748;46.670;14.272;2023-10-08T07:47:32;15.00;72.40
38333;DHT22;25748;46.670;14.272;2023-10-08T07:49:57;15.00;72.90
38333;DHT22;25748;46.670;14.272;2023-10-08T07:52:26;15.00;72.90
38333;DHT22;25748;46.670;14.272;2023-10-08T07:54:52;15.10;73.20
38333;DHT22;25748;46.670;14.272;2023-10-08T07:57:18;15.20;73.10
38333;DHT22;25748;46.670;14.272;2023-10-08T07:59:51;15.20;73.10
38333;DHT22;25748;46.670;14.272;2023-10-08T08:02:20;15.20;72.90
38333;DHT22;25748;46.670;14.272;2023-10-08T08:04:52;15.30;73.10
38333;DHT22;25748;46.670;14.272;2023-10-08T08:07:18;15.40;72.40
38333;DHT22;25748;46.670;14.272;2023-10-08T08:09:45;15.50;72.30
38333;DHT22;25748;46.670;14.272;2023-10-08T08:12:21;15.50;72.50
38333;DHT22;25748;46.670;14.272;2023-10-08T08:14:47;15.60;72.30
38333;DHT22;25748;46.670;14.272;2023-10-08T08:17:14;15.70;72.70
38333;DHT22;25748;46.670;14.272;2023-10-08T08:19:44;15.70;73.20
38333;DHT22;25748;46.670;14.272;2023-10-08T08:22:13;15.80;72.40
38333;DHT22;25748;46.670;14.272;2023-10-08T08:24:54;15.90;72.00
38333;DHT22;25748;46.670;14.272;2023-10-08T08:27:49;15.90;71.10
38333;DHT22;25748;46.670;14.272;2023-10-08T08:30:19;16.10;70.00
38333;DHT22;25748;46.670;14.272;2023-10-08T08:32:51;16.20;69.90
38333;DHT22;25748;46.670;14.272;2023-10-08T08:35:17;16.40;69.00
38333;DHT22;25748;46.670;14.272;2023-10-08T08:37:45;16.50;67.90
38333;DHT22;25748;46.670;14.272;2023-10-08T08:40:18;16.50;68.10
38333;DHT22;25748;46.670;14.272;2023-10-08T08:42:51;16.50;68.70
38333;DHT22;25748;46.670;14.272;2023-10-08T08:45:24;16.50;68.60
38333;DHT22;25748;46.670;14.272;2023-10-08T08:47:50;16.50;68.70
38333;DHT22;25748;46.670;14.272;2023-10-08T08:50:17;16.70;68.60
38333;DHT22;25748;46.670;14.272;2023-10-08T08:52:45;16.70;68.10
38333;DHT22;25748;46.670;14.272;2023-10-08T08:55:14;16.80;67.80
38333;DHT22;25748;46.670;14.272;2023-10-08T08:57:44;16.80;68.00
38333;DHT22;25748;46.670;14.272;2023-10-08T09:00:15;16.90;68.00
38333;DHT22;25748;46.670;14.272;2023-10-08T09:02:42;16.90;67.80
38333;DHT22;25748;46.670;14.272;2023-10-08T09:05:10;17.00;68.20
38333;DHT22;25748;46.670;14.272;2023-10-08T09:08:00;17.10;67.70
38333;DHT22;25748;46.670;14.272;2023-10-08T09:10:29;17.10;67.50
38333;DHT22;25748;46.670;14.272;2023-10-08T09:12:56;17.30;67.50
38333;DHT22;25748;46.670;14.272;2023-10-08T09:15:25;17.30;67.30
38333;DHT22;25748;46.670;14.272;2023-10-08T09:17:58;17.40;67.40
38333;DHT22;25748;46.670;14.272;2023-10-08T09:20:32;17.50;67.20
38333;DHT22;25748;46.670;14.272;2023-10-08T09:23:11;17.70;66.60
38333;DHT22;25748;46.670;14.272;2023-10-08T09:25:41;17.70;66.60
38333;DHT22;25748;46.670;14.272;2023-10-08T09:28:07;17.90;66.80
38333;DHT22;25748;46.670;14.272;2023-10-08T09:30:35;18.10;66.50
38333;DHT22;25748;46.670;14.272;2023-10-08T09:33:10;18.20;66.70
38333;DHT22;25748;46.670;14.272;2023-10-08T09:35:36;18.40;67.30
38333;DHT22;25748;46.670;14.272;2023-10-08T09:38:07;18.60;67.30
38333;DHT22;25748;46.670;14.272;2023-10-08T09:40:40;18.80;66.20
38333;DHT22;25748;46.670;14.272;2023-10-08T09:43:13;19.00;65.50
38333;DHT22;25748;46.670;14.272;2023-10-08T09:46:15;19.10;64.00
38333;DHT22;25748;46.670;14.272;2023-10-08T09:48:37;19.30;63.70
38333;DHT22;25748;46.670;14.272;2023-10-08T09:51:03;19.50;61.90
38333;DHT22;25748;46.670;14.272;2023-10-08T09:56:29;19.70;60.70
38333;DHT22;25748;46.670;14.272;2023-10-08T09:58:57;19.70;59.90
38333;DHT22;25748;46.670;14.272;2023-10-08T10:01:25;19.80;59.20
38333;DHT22;25748;46.670;14.272;2023-10-08T10:03:52;19.90;59.40
38333;DHT22;25748;46.670;14.272;2023-10-08T10:06:18;19.80;59.70
38333;DHT22;25748;46.670;14.272;2023-10-08T10:08:45;19.90;59.50
38333;DHT22;25748;46.670;14.272;2023-10-08T10:11:11;20.00;59.30
38333;DHT22;25748;46.670;14.272;2023-10-08T10:13:44;20.10;59.50
38333;DHT22;25748;46.670;14.272;2023-10-08T10:16:13;20.20;58.90
38333;DHT22;25748;46.670;14.272;2023-10-08T10:18:39;20.30;58.40
38333;DHT22;25748;46.670;14.272;2023-10-08T10:26:28;20.50;58.30
38333;DHT22;25748;46.670;14.272;2023-10-08T10:31:35;20.60;58.10
38333;DHT22;25748;46.670;14.272;2023-10-08T10:34:08;20.60;57.90
38333;DHT22;25748;46.670;14.272;2023-10-08T10:36:35;20.70;57.90
38333;DHT22;25748;46.670;14.272;2023-10-08T10:39:01;20.70;58.00
38333;DHT22;25748;46.670;14.272;2023-10-08T10:41:50;20.70;57.80
38333;DHT22;25748;46.670;14.272;2023-10-08T10:44:17;20.80;58.00
38333;DHT22;25748;46.670;14.272;2023-10-08T10:46:46;20.80;58.00
38333;DHT22;25748;46.670;14.272;2023-10-08T10:49:38;20.90;57.90
38333;DHT22;25748;46.670;14.272;2023-10-08T10:52:24;20.90;57.80
38333;DHT22;25748;46.670;14.272;2023-10-08T10:55:20;21.00;58.10
38333;DHT22;25748;46.670;14.272;2023-10-08T11:00:32;21.00;57.20
38333;DHT22;25748;46.670;14.272;2023-10-08T11:02:58;21.00;56.80
38333;DHT22;25748;46.670;14.272;2023-10-08T11:05:35;21.10;56.10
38333;DHT22;25748;46.670;14.272;2023-10-08T11:08:05;21.10;56.00
38333;DHT22;25748;46.670;14.272;2023-10-08T11:10:33;21.10;56.00
38333;DHT22;25748;46.670;14.272;2023-10-08T11:12:59;21.10;56.40
38333;DHT22;25748;46.670;14.272;2023-10-08T11:15:28;21.20;56.40
38333;DHT22;25748;46.670;14.272;2023-10-08T11:18:13;21.30;56.70
38333;DHT22;25748;46.670;14.272;2023-10-08T11:20:41;21.40;55.80
38333;DHT22;25748;46.670;14.272;2023-10-08T11:25:58;21.40;56.70
38333;DHT22;25748;46.670;14.272;2023-10-08T11:28:38;21.50;56.80
38333;DHT22;25748;46.670;14.272;2023-10-08T11:31:14;21.60;57.20
38333;DHT22;25748;46.670;14.272;2023-10-08T11:33:43;21.70;57.10
38333;DHT22;25748;46.670;14.272;2023-10-08T11:36:17;21.80;56.70
38333;DHT22;25748;46.670;14.272;2023-10-08T11:38:51;21.90;56.80
38333;DHT22;25748;46.670;14.272;2023-10-08T11:41:19;22.00;56.40
38333;DHT22;25748;46.670;14.272;2023-10-08T11:43:51;22.20;56.50
38333;DHT22;25748;46.670;14.272;2023-10-08T11:46:31;22.30;56.60
38333;DHT22;25748;46.670;14.272;2023-10-08T11:49:07;22.40;56.70
38333;DHT22;25748;46.670;14.272;2023-10-08T11:51:37;22.60;56.20
38333;DHT22;25748;46.670;14.272;2023-10-08T11:54:05;22.60;55.70
38333;DHT22;25748;46.670;14.272;2023-10-08T11:56:32;22.60;55.70
38333;DHT22;25748;46.670;14.272;2023-10-08T11:59:02;22.70;55.80
38333;DHT22;25748;46.670;14.272;2023-10-08T12:01:34;22.70;56.00
38333;DHT22;25748;46.670;14.272;2023-10-08T12:04:04;22.80;56.00
38333;DHT22;25748;46.670;14.272;2023-10-08T12:06:30;22.90;55.80
38333;DHT22;25748;46.670;14.272;2023-10-08T12:08:57;22.90;55.60
38333;DHT22;25748;46.670;14.272;2023-10-08T12:11:25;23.00;56.10
38333;DHT22;25748;46.670;14.272;2023-10-08T12:13:57;23.00;55.50
38333;DHT22;25748;46.670;14.272;2023-10-08T12:16:25;23.10;55.90
38333;DHT22;25748;46.670;14.272;2023-10-08T12:18:55;23.10;55.90
38333;DHT22;25748;46.670;14.272;2023-10-08T12:21:31;23.20;55.90
38333;DHT22;25748;46.670;14.272;2023-10-08T12:24:01;23.20;55.50
38333;DHT22;25748;46.670;14.272;2023-10-08T12:26:30;23.30;55.20
38333;DHT22;25748;46.670;14.272;2023-10-08T12:28:57;23.30;54.80
38333;DHT22;25748;46.670;14.272;2023-10-08T12:31:23;23.30;55.40
38333;DHT22;25748;46.670;14.272;2023-10-08T12:33:50;23.40;55.30
38333;DHT22;25748;46.670;14.272;2023-10-08T12:36:24;23.50;55.40
38333;DHT22;25748;46.670;14.272;2023-10-08T12:38:52;23.50;55.80
38333;DHT22;25748;46.670;14.272;2023-10-08T12:41:27;23.60;55.60
38333;DHT22;25748;46.670;14.272;2023-10-08T12:43:53;23.80;55.70
38333;DHT22;25748;46.670;14.272;2023-10-08T12:46:20;23.90;55.30
38333;DHT22;25748;46.670;14.272;2023-10-08T12:48:50;24.00;55.00
38333;DHT22;25748;46.670;14.272;2023-10-08T12:51:24;24.20;54.10
38333;DHT22;25748;46.670;14.272;2023-10-08T12:53:51;24.30;54.80
38333;DHT22;25748;46.670;14.272;2023-10-08T12:56:24;24.40;54.40
38333;DHT22;25748;46.670;14.272;2023-10-08T12:58:58;24.50;54.40
38333;DHT22;25748;46.670;14.272;2023-10-08T13:01:24;24.60;55.10
38333;DHT22;25748;46.670;14.272;2023-10-08T13:03:54;24.70;53.80
38333;DHT22;25748;46.670;14.272;2023-10-08T13:06:26;24.90;54.30
38333;DHT22;25748;46.670;14.272;2023-10-08T13:08:57;24.90;54.10
38333;DHT22;25748;46.670;14.272;2023-10-08T13:11:26;25.00;53.80
38333;DHT22;25748;46.670;14.272;2023-10-08T13:13:53;25.10;53.40
38333;DHT22;25748;46.670;14.272;2023-10-08T13:16:22;25.20;53.20
38333;DHT22;25748;46.670;14.272;2023-10-08T13:18:49;25.20;53.50
38333;DHT22;25748;46.670;14.272;2023-10-08T13:21:16;25.30;53.80
38333;DHT22;25748;46.670;14.272;2023-10-08T13:23:44;25.40;53.30
38333;DHT22;25748;46.670;14.272;2023-10-08T13:26:12;25.40;52.70
38333;DHT22;25748;46.670;14.272;2023-10-08T13:28:45;25.50;52.90
38333;DHT22;25748;46.670;14.272;2023-10-08T13:31:11;25.50;53.10
38333;DHT22;25748;46.670;14.272;2023-10-08T13:33:42;25.50;52.90
38333;DHT22;25748;46.670;14.272;2023-10-08T13:36:09;25.60;52.50
38333;DHT22;25748;46.670;14.272;2023-10-08T13:38:36;25.60;52.00
38333;DHT22;25748;46.670;14.272;2023-10-08T13:41:07;25.70;51.40
38333;DHT22;25748;46.670;14.272;2023-10-08T13:43:46;25.70;51.50
38333;DHT22;25748;46.670;14.272;2023-10-08T13:46:17;25.70;51.60
38333;DHT22;25748;46.670;14.272;2023-10-08T13:48:46;25.60;52.10
38333;DHT22;25748;46.670;14.272;2023-10-08T13:51:19;25.60;51.30
38333;DHT22;25748;46.670;14.272;2023-10-08T13:53:55;25.50;51.30
38333;DHT22;25748;46.670;14.272;2023-10-08T13:56:26;25.50;51.60
38333;DHT22;25748;46.670;14.272;2023-10-08T13:58:55;25.50;52.20
38333;DHT22;25748;46.670;14.272;2023-10-08T14:01:32;25.50;53.10
38333;DHT22;25748;46.670;14.272;2023-10-08T14:04:02;25.40;52.80
38333;DHT22;25748;46.670;14.272;2023-10-08T14:06:35;25.50;53.10
38333;DHT22;25748;46.670;14.272;2023-10-08T14:09:04;25.50;53.30
38333;DHT22;25748;46.670;14.272;2023-10-08T14:11:34;25.40;53.20
38333;DHT22;25748;46.670;14.272;2023-10-08T14:14:00;25.50;53.30
38333;DHT22;25748;46.670;14.272;2023-10-08T14:16:29;25.50;53.40
38333;DHT22;25748;46.670;14.272;2023-10-08T14:19:07;25.50;53.40
38333;DHT22;25748;46.670;14.272;2023-10-08T14:21:32;25.50;53.80
38333;DHT22;25748;46.670;14.272;2023-10-08T14:24:06;25.50;54.50
38333;DHT22;25748;46.670;14.272;2023-10-08T14:26:42;25.50;54.90
38333;DHT22;25748;46.670;14.272;2023-10-08T14:29:08;25.40;54.30
38333;DHT22;25748;46.670;14.272;2023-10-08T14:31:43;25.40;54.20
38333;DHT22;25748;46.670;14.272;2023-10-08T14:34:16;25.30;54.10
38333;DHT22;25748;46.670;14.272;2023-10-08T14:36:45;25.30;54.20
38333;DHT22;25748;46.670;14.272;2023-10-08T14:39:30;25.10;54.40
38333;DHT22;25748;46.670;14.272;2023-10-08T14:42:15;25.10;54.50
38333;DHT22;25748;46.670;14.272;2023-10-08T14:45:00;25.10;55.20
38333;DHT22;25748;46.670;14.272;2023-10-08T14:47:26;25.10;55.10
38333;DHT22;25748;46.670;14.272;2023-10-08T14:49:52;25.10;54.70
38333;DHT22;25748;46.670;14.272;2023-10-08T14:52:18;25.10;55.10
38333;DHT22;25748;46.670;14.272;2023-10-08T14:54:44;25.10;54.80
38333;DHT22;25748;46.670;14.272;2023-10-08T14:57:11;25.00;55.00
38333;DHT22;25748;46.670;14.272;2023-10-08T14:59:40;24.90;55.40
38333;DHT22;25748;46.670;14.272;2023-10-08T15:02:08;24.90;55.70
38333;DHT22;25748;46.670;14.272;2023-10-08T15:04:36;24.80;55.90
38333;DHT22;25748;46.670;14.272;2023-10-08T15:07:06;24.80;56.50
38333;DHT22;25748;46.670;14.272;2023-10-08T15:09:37;24.80;57.00
38333;DHT22;25748;46.670;14.272;2023-10-08T15:12:05;24.70;57.10
38333;DHT22;25748;46.670;14.272;2023-10-08T15:14:33;24.70;57.40
38333;DHT22;25748;46.670;14.272;2023-10-08T15:17:00;24.60;57.70
38333;DHT22;25748;46.670;14.272;2023-10-08T15:19:26;24.60;57.90
38333;DHT22;25748;46.670;14.272;2023-10-08T15:21:52;24.50;58.10
38333;DHT22;25748;46.670;14.272;2023-10-08T15:24:19;24.40;58.00
38333;DHT22;25748;46.670;14.272;2023-10-08T15:26:53;24.30;58.30
38333;DHT22;25748;46.670;14.272;2023-10-08T15:29:20;24.20;58.40
38333;DHT22;25748;46.670;14.272;2023-10-08T15:31:54;24.10;58.30
38333;DHT22;25748;46.670;14.272;2023-10-08T15:34:24;24.00;58.00
38333;DHT22;25748;46.670;14.272;2023-10-08T15:36:52;23.80;58.20
38333;DHT22;25748;46.670;14.272;2023-10-08T15:39:18;23.70;58.60
38333;DHT22;25748;46.670;14.272;2023-10-08T15:41:54;23.60;58.70
38333;DHT22;25748;46.670;14.272;2023-10-08T15:44:21;23.30;58.90
38333;DHT22;25748;46.670;14.272;2023-10-08T15:46:50;23.10;59.00
38333;DHT22;25748;46.670;14.272;2023-10-08T15:49:16;23.00;59.00
38333;DHT22;25748;46.670;14.272;2023-10-08T15:51:46;22.90;58.60
38333;DHT22;25748;46.670;14.272;2023-10-08T15:54:12;22.80;58.70
38333;DHT22;25748;46.670;14.272;2023-10-08T15:56:38;22.70;58.90
38333;DHT22;25748;46.670;14.272;2023-10-08T15:59:05;22.50;58.50